createdAt,value
2023-05-25T00:01:04.679Z,1.23
2023-05-25T00:03:32.399Z,1.77
2023-05-25T00:06:03.346Z,2.00
2023-05-25T00:08:30.527Z,2.05
2023-05-25T00:10:57.566Z,2.30
2023-05-25T00:13:24.594Z,2.10
2023-05-25T00:15:51.635Z,1.52
2023-05-25T00:18:18.875Z,1.73
2023-05-25T00:20:47.457Z,1.65
2023-05-25T00:23:14.810Z,2.03
2023-05-25T00:25:42.005Z,1.60
2023-05-25T00:28:11.548Z,1.70
2023-05-25T00:30:39.124Z,1.60
2023-05-25T00:33:06.793Z,1.77
2023-05-25T00:35:33.845Z,1.60
2023-05-25T00:38:00.955Z,2.00
2023-05-25T00:40:28.125Z,2.10
2023-05-25T00:42:57.617Z,1.85
2023-05-25T00:45:24.718Z,2.33
2023-05-25T00:47:53.080Z,2.20
2023-05-25T00:50:38.190Z,1.80
2023-05-25T00:53:07.143Z,1.55
2023-05-25T00:55:55.953Z,1.42
2023-05-25T00:58:27.196Z,1.42
2023-05-25T01:00:57.750Z,1.80
2023-05-25T01:03:29.708Z,1.60
2023-05-25T01:05:58.443Z,1.92
2023-05-25T01:08:27.187Z,1.83
2023-05-25T01:10:57.120Z,1.60
2023-05-25T01:13:24.572Z,1.67
2023-05-25T01:15:52.505Z,1.60
2023-05-25T01:18:19.501Z,1.63
2023-05-25T01:21:20.196Z,1.42
2023-05-25T01:23:58.794Z,1.45
2023-05-25T01:26:29.799Z,1.77
2023-05-25T01:29:01.898Z,1.52
2023-05-25T01:31:29.964Z,1.75
2023-05-25T01:33:57.939Z,1.80
2023-05-25T01:36:25.229Z,2.00
2023-05-25T01:38:52.424Z,1.42
2023-05-25T01:41:19.439Z,1.80
2023-05-25T01:43:47.004Z,1.27
2023-05-25T01:46:36.857Z,1.52
2023-05-25T01:49:18.776Z,1.75
2023-05-25T01:51:57.988Z,1.40
2023-05-25T01:54:38.963Z,1.10
2023-05-25T01:57:10.656Z,1.75
2023-05-25T01:59:38.620Z,2.00
2023-05-25T02:02:07.421Z,1.50
2023-05-25T02:04:35.450Z,1.80
2023-05-25T02:07:06.169Z,1.85
2023-05-25T02:09:33.207Z,1.77
2023-05-25T02:12:00.916Z,1.98
2023-05-25T02:14:28.348Z,1.65
2023-05-25T02:16:55.361Z,1.33
2023-05-25T02:19:22.344Z,1.73
2023-05-25T02:21:49.357Z,1.67
2023-05-25T02:24:16.451Z,1.42
2023-05-25T02:26:43.449Z,1.60
2023-05-25T02:29:11.551Z,1.52
2023-05-25T02:31:38.693Z,1.50
2023-05-25T02:34:05.929Z,1.70
2023-05-25T02:36:37.006Z,1.85
2023-05-25T02:39:05.552Z,1.35
2023-05-25T02:41:32.599Z,1.90
2023-05-25T02:44:00.052Z,1.67
2023-05-25T02:46:27.234Z,1.73
2023-05-25T02:48:54.265Z,1.98
2023-05-25T02:51:21.269Z,1.55
2023-05-25T02:53:48.565Z,1.05
2023-05-25T02:56:15.603Z,1.33
2023-05-25T02:58:42.806Z,1.40
2023-05-25T03:01:18.409Z,1.45
2023-05-25T03:03:53.392Z,1.50
2023-05-25T03:06:23.044Z,1.70
2023-05-25T03:08:54.387Z,1.33
2023-05-25T03:11:22.458Z,1.80
2023-05-25T03:13:51.921Z,1.30
2023-05-25T03:16:23.153Z,1.65
2023-05-25T03:18:50.336Z,1.58
2023-05-25T03:21:17.410Z,1.52
2023-05-25T03:23:44.825Z,1.73
2023-05-25T03:26:11.935Z,1.90
2023-05-25T03:28:40.006Z,1.67
2023-05-25T03:31:07.373Z,1.35
2023-05-25T03:33:34.590Z,1.67
2023-05-25T03:36:07.994Z,1.63
2023-05-25T03:38:38.543Z,1.55
2023-05-25T03:41:05.896Z,1.58
2023-05-25T03:43:32.947Z,1.67
2023-05-25T03:46:00.179Z,1.63
2023-05-25T03:48:27.221Z,1.80
2023-05-25T03:50:54.395Z,1.85
2023-05-25T03:53:22.355Z,1.73
2023-05-25T03:55:51.992Z,2.08
2023-05-25T03:58:19.116Z,2.03
2023-05-25T04:00:49.052Z,1.67
2023-05-25T04:03:16.455Z,1.48
2023-05-25T04:05:45.840Z,1.63
2023-05-25T04:08:26.355Z,1.55
2023-05-25T04:10:53.351Z,1.90
2023-05-25T04:13:20.935Z,1.42
2023-05-25T04:15:48.026Z,1.50
2023-05-25T04:18:24.623Z,2.08
2023-05-25T04:20:51.690Z,1.75
2023-05-25T04:23:21.771Z,1.77
2023-05-25T04:25:51.179Z,1.38
2023-05-25T04:28:18.813Z,1.48
2023-05-25T04:30:57.704Z,1.67
2023-05-25T04:33:50.762Z,1.52
2023-05-25T04:36:24.967Z,1.60
2023-05-25T04:38:55.310Z,2.22
2023-05-25T04:41:25.864Z,1.83
2023-05-25T04:44:06.852Z,1.38
2023-05-25T04:46:38.934Z,1.48
2023-05-25T04:49:08.346Z,1.60
2023-05-25T04:51:37.044Z,1.63
2023-05-25T04:54:04.359Z,1.70
2023-05-25T04:56:31.434Z,1.88
2023-05-25T04:58:58.444Z,1.80
2023-05-25T05:01:26.409Z,1.83
2023-05-25T05:03:56.335Z,2.03
2023-05-25T05:06:25.644Z,1.88
2023-05-25T05:08:52.831Z,1.83
2023-05-25T05:11:19.952Z,1.77
2023-05-25T05:13:47.132Z,1.80
2023-05-25T05:16:14.226Z,1.70
2023-05-25T05:18:41.643Z,2.08
2023-05-25T05:21:08.655Z,2.00
2023-05-25T05:23:36.636Z,2.22
2023-05-25T05:26:04.986Z,1.77
2023-05-25T05:28:32.105Z,1.63
2023-05-25T05:30:59.352Z,1.75
2023-05-25T05:33:26.544Z,1.70
2023-05-25T05:35:54.703Z,1.90
2023-05-25T05:38:22.860Z,2.40
2023-05-25T05:40:49.896Z,2.13
2023-05-25T05:43:22.767Z,1.90
2023-05-25T05:45:49.987Z,1.75
2023-05-25T05:48:17.023Z,2.00
2023-05-25T05:50:44.774Z,2.10
2023-05-25T05:53:13.203Z,1.92
2023-05-25T05:55:40.878Z,1.88
2023-05-25T05:58:08.036Z,1.95
2023-05-25T06:00:35.184Z,1.92
2023-05-25T06:03:02.417Z,1.92
2023-05-25T06:05:30.715Z,2.20
2023-05-25T06:07:58.726Z,2.17
2023-05-25T06:10:25.957Z,1.90
2023-05-25T06:12:53.802Z,1.98
2023-05-25T06:15:21.419Z,1.90
2023-05-25T06:17:50.458Z,2.25
2023-05-25T06:20:18.244Z,1.55
2023-05-25T06:22:46.468Z,2.33
2023-05-25T06:25:14.030Z,2.17
2023-05-25T06:27:41.272Z,2.10
2023-05-25T06:30:08.949Z,2.05
2023-05-25T06:32:36.865Z,2.17
2023-05-25T06:35:04.845Z,2.13
2023-05-25T06:37:37.970Z,2.10
2023-05-25T06:40:09.329Z,2.60
2023-05-25T06:42:37.707Z,2.13
2023-05-25T06:45:07.526Z,2.25
2023-05-25T06:47:36.023Z,1.67
2023-05-25T06:50:04.064Z,2.15
2023-05-25T06:52:31.636Z,2.15
2023-05-25T06:54:58.708Z,2.22
2023-05-25T06:57:25.814Z,1.95
2023-05-25T06:59:52.853Z,1.60
2023-05-25T07:02:20.931Z,2.25
2023-05-25T07:04:48.107Z,2.15
2023-05-25T07:07:15.192Z,2.45
2023-05-25T07:09:42.203Z,2.00
2023-05-25T07:12:10.956Z,2.45
2023-05-25T07:14:38.350Z,2.15
2023-05-25T07:17:05.631Z,2.10
2023-05-25T07:19:32.632Z,2.10
2023-05-25T07:21:59.646Z,2.33
2023-05-25T07:24:26.692Z,2.33
2023-05-25T07:26:53.743Z,2.38
2023-05-25T07:29:20.928Z,1.75
2023-05-25T07:31:48.089Z,2.08
2023-05-25T07:34:15.507Z,2.47
2023-05-25T07:36:42.482Z,1.92
2023-05-25T07:39:11.221Z,2.20
2023-05-25T07:41:38.987Z,2.20
2023-05-25T07:44:05.949Z,2.22
2023-05-25T07:46:33.151Z,1.90
2023-05-25T07:49:00.184Z,2.22
2023-05-25T07:51:30.021Z,2.28
2023-05-25T07:53:58.358Z,2.05
2023-05-25T07:56:26.509Z,2.50
2023-05-25T07:58:53.539Z,2.70
2023-05-25T08:01:20.706Z,2.70
2023-05-25T08:03:50.059Z,2.33
2023-05-25T08:06:17.709Z,1.80
2023-05-25T08:08:44.975Z,2.20
2023-05-25T08:11:12.326Z,2.03
2023-05-25T08:13:39.549Z,2.08
2023-05-25T08:16:06.641Z,2.40
2023-05-25T08:18:33.633Z,2.05
2023-05-25T08:21:01.216Z,2.60
2023-05-25T08:23:28.220Z,2.35
2023-05-25T08:25:55.255Z,2.40
2023-05-25T08:28:22.563Z,2.15
2023-05-25T08:30:49.816Z,2.47
2023-05-25T08:33:16.930Z,2.20
2023-05-25T08:35:44.165Z,2.45
2023-05-25T08:38:11.415Z,1.90
2023-05-25T08:40:43.256Z,2.10
2023-05-25T08:43:10.433Z,2.35
2023-05-25T08:45:39.578Z,2.00
2023-05-25T08:48:23.792Z,2.63
2023-05-25T08:51:05.509Z,2.30
2023-05-25T08:53:37.339Z,2.20
2023-05-25T08:56:30.488Z,2.22
2023-05-25T08:59:12.269Z,2.28
2023-05-25T09:01:45.880Z,2.28
2023-05-25T09:04:14.078Z,2.42
2023-05-25T09:06:41.307Z,2.83
2023-05-25T09:09:09.492Z,2.38
2023-05-25T09:11:40.551Z,2.28
2023-05-25T09:14:09.061Z,2.40
2023-05-25T09:16:38.352Z,2.30
2023-05-25T09:19:05.706Z,2.10
2023-05-25T09:21:32.768Z,1.95
2023-05-25T09:24:01.443Z,2.50
2023-05-25T09:26:28.649Z,2.40
2023-05-25T09:28:56.002Z,2.17
2023-05-25T09:31:25.592Z,2.58
2023-05-25T09:33:59.713Z,2.22
2023-05-25T09:36:27.043Z,2.28
2023-05-25T09:38:56.376Z,2.65
2023-05-25T09:41:27.475Z,2.03
2023-05-25T09:44:09.651Z,2.00
2023-05-25T09:46:39.224Z,2.50
2023-05-25T09:49:09.035Z,1.85
2023-05-25T09:51:37.026Z,2.53
2023-05-25T09:54:08.648Z,2.33
2023-05-25T09:56:36.359Z,2.35
2023-05-25T09:59:03.661Z,2.38
2023-05-25T10:01:33.590Z,2.40
2023-05-25T10:04:04.786Z,1.90
2023-05-25T10:06:33.998Z,1.98
2023-05-25T10:09:03.292Z,2.17
2023-05-25T10:11:31.446Z,2.58
2023-05-25T10:14:03.678Z,2.63
2023-05-25T10:16:34.816Z,1.92
2023-05-25T10:19:12.944Z,2.25
2023-05-25T10:21:42.017Z,2.08
2023-05-25T10:24:44.188Z,2.55
2023-05-25T10:27:27.136Z,2.38
2023-05-25T10:29:57.119Z,2.22
2023-05-25T10:32:25.122Z,2.17
2023-05-25T10:34:53.453Z,2.80
2023-05-25T10:37:20.802Z,2.53
2023-05-25T10:39:49.767Z,2.65
2023-05-25T10:42:18.978Z,2.50
2023-05-25T10:44:46.632Z,2.70
2023-05-25T10:47:16.395Z,2.55
2023-05-25T10:49:58.594Z,2.85
2023-05-25T10:52:30.605Z,2.35
2023-05-25T10:55:01.683Z,2.55
2023-05-25T10:57:29.076Z,2.60
2023-05-25T11:00:06.356Z,2.17
2023-05-25T11:02:55.981Z,2.30
2023-05-25T11:05:36.018Z,2.35
2023-05-25T11:08:06.487Z,2.78
2023-05-25T11:10:50.615Z,2.35
2023-05-25T11:13:43.976Z,2.67
2023-05-25T11:16:40.071Z,2.10
2023-05-25T11:19:15.044Z,2.25
2023-05-25T11:21:44.989Z,2.45
2023-05-25T11:24:17.701Z,2.50
2023-05-25T11:27:14.126Z,2.50
2023-05-25T11:29:41.788Z,2.33
2023-05-25T11:32:14.548Z,2.58
2023-05-25T11:34:46.581Z,2.00
2023-05-25T11:37:21.066Z,2.28
2023-05-25T11:39:49.840Z,2.40
2023-05-25T11:42:19.559Z,2.22
2023-05-25T11:47:18.513Z,2.17
2023-05-25T11:49:49.567Z,2.20
2023-05-25T11:52:18.876Z,2.15
2023-05-25T11:54:47.057Z,2.53
2023-05-25T11:57:24.859Z,2.08
2023-05-25T12:00:00.105Z,1.70
2023-05-25T12:02:27.150Z,1.73
2023-05-25T12:05:01.268Z,2.20
2023-05-25T12:07:29.981Z,2.33
2023-05-25T12:10:13.884Z,1.65
2023-05-25T12:12:48.614Z,1.73
2023-05-25T12:15:21.145Z,1.95
2023-05-25T12:17:49.223Z,1.77
2023-05-25T12:20:18.028Z,2.08
2023-05-25T12:22:46.468Z,1.70
2023-05-25T12:25:15.794Z,2.03
2023-05-25T12:30:11.905Z,1.70
2023-05-25T12:33:03.725Z,2.22
2023-05-25T12:35:47.947Z,2.00
2023-05-25T12:38:18.630Z,1.98
2023-05-25T12:40:46.101Z,2.10
2023-05-25T12:43:15.355Z,1.95
2023-05-25T12:45:43.618Z,2.15
2023-05-25T12:48:10.970Z,1.85
2023-05-25T12:50:38.305Z,1.95
2023-05-25T12:53:05.529Z,1.65
2023-05-25T12:55:35.649Z,1.58
2023-05-25T12:58:05.749Z,1.70
2023-05-25T13:00:39.258Z,1.67
2023-05-25T13:03:07.821Z,1.83
2023-05-25T13:05:36.934Z,2.03
2023-05-25T13:08:05.964Z,1.70
2023-05-25T13:10:33.837Z,1.90
2023-05-25T13:13:01.256Z,1.67
2023-05-25T13:15:29.106Z,1.48
2023-05-25T13:18:00.219Z,1.85
2023-05-25T13:20:32.332Z,2.15
2023-05-25T13:22:59.660Z,2.08
2023-05-25T13:25:29.788Z,1.92
2023-05-25T13:27:59.613Z,1.45
2023-05-25T13:30:26.899Z,2.13
2023-05-25T13:32:53.996Z,1.85
2023-05-25T13:35:37.607Z,1.67
2023-05-25T13:38:05.227Z,1.45
2023-05-25T13:40:32.270Z,1.88
2023-05-25T13:42:59.355Z,1.73
2023-05-25T13:45:26.416Z,1.70
2023-05-25T13:47:53.531Z,1.80
2023-05-25T13:50:20.655Z,2.15
2023-05-25T13:52:50.238Z,1.60
2023-05-25T13:55:17.386Z,1.80
2023-05-25T13:57:44.416Z,1.45
2023-05-25T14:00:12.287Z,1.67
2023-05-25T14:02:39.464Z,1.75
2023-05-25T14:05:06.952Z,1.48
2023-05-25T14:07:33.982Z,1.58
2023-05-25T14:10:01.178Z,1.90
2023-05-25T14:12:28.540Z,1.85
2023-05-25T14:14:57.811Z,1.85
2023-05-25T14:17:25.134Z,2.33
2023-05-25T14:19:52.213Z,1.90
2023-05-25T14:22:19.458Z,1.73
2023-05-25T14:24:46.544Z,1.70
2023-05-25T14:27:13.715Z,1.83
2023-05-25T14:29:40.808Z,1.50
2023-05-25T14:32:07.828Z,1.65
2023-05-25T14:34:34.855Z,1.50
2023-05-25T14:37:01.896Z,1.83
2023-05-25T14:39:29.729Z,1.80
2023-05-25T14:41:56.695Z,1.92
2023-05-25T14:44:24.143Z,2.08
2023-05-25T14:46:51.264Z,2.00
2023-05-25T14:49:18.540Z,1.80
2023-05-25T14:51:45.805Z,2.10
2023-05-25T14:54:13.642Z,1.77
2023-05-25T14:56:40.751Z,1.85
2023-05-25T14:59:08.031Z,1.70
2023-05-25T15:01:35.574Z,1.92
2023-05-25T15:04:03.224Z,1.73
2023-05-25T15:06:31.951Z,1.70
2023-05-25T15:08:58.915Z,1.80
2023-05-25T15:11:26.794Z,1.73
2023-05-25T15:13:53.821Z,1.70
2023-05-25T15:16:21.149Z,1.95
2023-05-25T15:18:48.263Z,1.73
2023-05-25T15:21:15.247Z,1.70
2023-05-25T15:23:42.299Z,1.63
2023-05-25T15:26:11.476Z,1.95
2023-05-25T15:28:38.585Z,1.65
2023-05-25T15:31:05.707Z,1.63
2023-05-25T15:33:51.565Z,1.75
2023-05-25T15:36:19.692Z,1.80
2023-05-25T15:38:49.073Z,1.38
2023-05-25T15:41:17.408Z,1.60
2023-05-25T15:43:57.650Z,1.88
2023-05-25T15:46:25.019Z,1.55
2023-05-25T15:48:52.030Z,1.98
2023-05-25T15:51:19.270Z,1.45
2023-05-25T15:53:46.919Z,1.30
2023-05-25T15:56:14.291Z,1.70
2023-05-25T15:58:41.587Z,1.60
2023-05-25T16:01:09.185Z,1.55
2023-05-25T16:03:37.288Z,1.60
2023-05-25T16:06:04.547Z,1.77
2023-05-25T16:08:31.713Z,1.70
2023-05-25T16:10:58.726Z,1.80
2023-05-25T16:13:25.718Z,1.80
2023-05-25T16:15:52.869Z,2.10
2023-05-25T16:18:19.899Z,1.98
2023-05-25T16:20:47.620Z,1.50
2023-05-25T16:23:16.279Z,1.73
2023-05-25T16:25:43.479Z,1.85
2023-05-25T16:28:10.829Z,1.85
2023-05-25T16:30:37.792Z,1.98
2023-05-25T16:33:04.813Z,1.83
2023-05-25T16:35:31.855Z,1.70
2023-05-25T16:37:59.023Z,1.80
2023-05-25T16:40:26.196Z,2.35
2023-05-25T16:42:53.173Z,2.10
2023-05-25T16:45:22.865Z,2.17
2023-05-25T16:47:49.943Z,1.95
2023-05-25T16:50:18.324Z,1.88
2023-05-25T16:52:45.439Z,1.80
2023-05-25T16:55:12.897Z,1.83
2023-05-25T16:57:39.936Z,1.83
2023-05-25T17:00:08.085Z,1.90
2023-05-25T17:02:35.157Z,1.95
2023-05-25T17:05:06.290Z,1.63
2023-05-25T17:07:34.403Z,1.70
2023-05-25T17:10:02.036Z,1.80
2023-05-25T17:12:29.031Z,2.10
2023-05-25T17:14:56.207Z,1.92
2023-05-25T17:17:23.288Z,1.77
2023-05-25T17:19:50.367Z,1.73
2023-05-25T17:22:17.527Z,1.88
2023-05-25T17:24:44.542Z,1.65
2023-05-25T17:27:11.653Z,1.90
2023-05-25T17:29:38.882Z,2.00
2023-05-25T17:32:06.369Z,1.88
2023-05-25T17:34:33.530Z,2.15
2023-05-25T17:37:00.555Z,1.85
2023-05-25T17:39:27.549Z,1.90
2023-05-25T17:41:54.585Z,1.70
2023-05-25T17:44:21.628Z,1.60
2023-05-25T17:46:48.671Z,1.80
2023-05-25T17:49:15.695Z,1.92
2023-05-25T17:51:42.683Z,2.00
2023-05-25T17:54:15.137Z,1.40
2023-05-25T17:56:42.202Z,1.98
2023-05-25T17:59:09.620Z,2.30
2023-05-25T18:01:38.315Z,1.95
2023-05-25T18:04:05.637Z,1.83
2023-05-25T18:06:32.908Z,1.70
2023-05-25T18:08:59.913Z,1.67
2023-05-25T18:11:28.295Z,1.65
2023-05-25T18:13:55.551Z,1.70
2023-05-25T18:16:22.619Z,2.00
2023-05-25T18:18:49.622Z,2.10
2023-05-25T18:21:17.194Z,1.55
2023-05-25T18:23:44.213Z,1.88
2023-05-25T18:26:11.204Z,1.60
2023-05-25T18:28:38.191Z,1.77
2023-05-25T18:31:05.326Z,2.13
2023-05-25T18:33:32.359Z,1.95
2023-05-25T18:35:59.411Z,1.60
2023-05-25T18:38:26.408Z,1.88
2023-05-25T18:40:53.719Z,2.35
2023-05-25T18:43:20.849Z,2.35
2023-05-25T18:45:47.907Z,2.08
2023-05-25T18:48:16.076Z,2.22
2023-05-25T18:50:44.664Z,1.95
2023-05-25T18:53:11.909Z,2.20
2023-05-25T18:55:39.177Z,1.85
2023-05-25T18:58:06.900Z,1.85
2023-05-25T19:00:34.183Z,2.28
2023-05-25T19:03:01.367Z,2.53
2023-05-25T19:05:28.559Z,2.55
2023-05-25T19:07:59.575Z,2.05
2023-05-25T19:10:27.547Z,2.25
2023-05-25T19:12:54.988Z,2.05
2023-05-25T19:15:22.197Z,2.35
2023-05-25T19:17:49.317Z,2.50
2023-05-25T19:20:16.577Z,2.17
2023-05-25T19:22:43.769Z,2.65
2023-05-25T19:25:10.845Z,2.67
2023-05-25T19:27:37.878Z,2.90
2023-05-25T19:30:05.416Z,2.58
2023-05-25T19:32:32.642Z,2.90
2023-05-25T19:34:59.706Z,2.42
2023-05-25T19:37:27.221Z,2.33
2023-05-25T19:39:54.240Z,2.50
2023-05-25T19:42:21.571Z,2.78
2023-05-25T19:44:48.706Z,3.03
2023-05-25T19:47:15.838Z,2.78
2023-05-25T19:49:43.161Z,2.42
2023-05-25T19:52:10.147Z,2.65
2023-05-25T19:54:38.012Z,2.38
2023-05-25T19:57:05.223Z,2.90
2023-05-25T19:59:32.224Z,3.15
2023-05-25T20:01:59.353Z,2.63
2023-05-25T20:04:26.425Z,2.92
2023-05-25T20:06:53.818Z,2.42
2023-05-25T20:09:29.385Z,2.75
2023-05-25T20:12:00.096Z,2.90
2023-05-25T20:14:27.161Z,2.60
2023-05-25T20:16:56.799Z,3.08
2023-05-25T20:19:23.897Z,2.70
2023-05-25T20:21:51.596Z,2.60
2023-05-25T20:24:18.944Z,2.80
2023-05-25T20:26:45.975Z,2.97
2023-05-25T20:29:15.869Z,2.85
2023-05-25T20:31:43.136Z,3.20
2023-05-25T20:34:10.174Z,2.42
2023-05-25T20:36:37.242Z,3.00
2023-05-25T20:39:04.286Z,2.70
2023-05-25T20:41:31.340Z,2.53
2023-05-25T20:43:58.343Z,2.78
2023-05-25T20:46:26.083Z,2.58
2023-05-25T20:48:53.533Z,3.00
2023-05-25T20:51:21.690Z,2.53
2023-05-25T20:53:48.758Z,2.55
2023-05-25T20:56:16.013Z,2.42
2023-05-25T20:58:43.569Z,2.67
2023-05-25T21:01:10.945Z,3.00
2023-05-25T21:03:38.626Z,2.83
2023-05-25T21:06:06.219Z,2.42
2023-05-25T21:08:33.665Z,2.88
2023-05-25T21:11:00.984Z,2.85
2023-05-25T21:13:27.993Z,3.03
2023-05-25T21:15:55.073Z,2.78
2023-05-25T21:18:22.174Z,2.67
2023-05-25T21:20:49.358Z,2.80
2023-05-25T21:23:16.429Z,3.00
2023-05-25T21:25:43.737Z,2.78
2023-05-25T21:28:10.995Z,2.70
2023-05-25T21:30:37.999Z,2.85
2023-05-25T21:33:05.204Z,2.88
2023-05-25T21:35:32.305Z,2.88
2023-05-25T21:37:59.340Z,3.10
2023-05-25T21:40:26.376Z,3.10
2023-05-25T21:42:53.525Z,2.88
2023-05-25T21:45:21.209Z,3.45
2023-05-25T21:47:48.353Z,2.88
2023-05-25T21:50:15.708Z,2.85
2023-05-25T21:52:42.747Z,2.72
2023-05-25T21:55:10.043Z,2.78
2023-05-25T21:57:37.121Z,2.97
2023-05-25T22:00:06.435Z,2.72
2023-05-25T22:02:40.291Z,2.70
2023-05-25T22:05:07.621Z,2.88
2023-05-25T22:07:34.720Z,2.63
2023-05-25T22:10:01.722Z,2.95
2023-05-25T22:12:29.224Z,2.70
2023-05-25T22:14:56.210Z,2.88
2023-05-25T22:17:23.240Z,3.10
2023-05-25T22:20:03.182Z,3.25
2023-05-25T22:22:34.756Z,3.08
2023-05-25T22:25:01.797Z,2.78
2023-05-25T22:27:28.855Z,2.95
2023-05-25T22:29:55.972Z,3.05
2023-05-25T22:32:23.176Z,3.25
2023-05-25T22:34:50.460Z,2.58
2023-05-25T22:37:17.604Z,3.10
2023-05-25T22:39:44.729Z,2.85
2023-05-25T22:42:11.756Z,3.00
2023-05-25T22:44:38.789Z,3.05
2023-05-25T22:47:06.856Z,2.78
2023-05-25T22:49:41.300Z,2.85
2023-05-25T22:52:11.971Z,2.92
2023-05-25T22:54:39.203Z,3.10
2023-05-25T22:57:08.264Z,2.67
2023-05-25T22:59:35.587Z,2.63
2023-05-25T23:02:02.747Z,2.75
2023-05-25T23:04:29.773Z,3.05
2023-05-25T23:06:56.774Z,3.55
2023-05-25T23:09:23.800Z,3.28
2023-05-25T23:11:50.785Z,2.83
2023-05-25T23:14:17.763Z,3.08
2023-05-25T23:16:48.391Z,3.47
2023-05-25T23:21:43.983Z,2.80
2023-05-25T23:24:10.976Z,2.60
2023-05-25T23:26:37.976Z,2.83
2023-05-25T23:29:05.046Z,3.20
2023-05-25T23:31:32.237Z,3.15
2023-05-25T23:33:59.285Z,3.40
2023-05-25T23:36:26.358Z,2.92
2023-05-25T23:38:53.468Z,2.92
2023-05-25T23:41:21.914Z,3.10
2023-05-25T23:43:48.914Z,3.00
2023-05-25T23:46:17.248Z,2.75
2023-05-25T23:48:45.871Z,2.88
2023-05-25T23:51:13.156Z,3.03
2023-05-25T23:53:40.238Z,3.08
2023-05-25T23:56:07.498Z,2.92
2023-05-25T23:58:34.644Z,2.95
